createdAt,value
2023-07-25T00:01:28.073Z,15.30
2023-07-25T00:03:55.054Z,15.30
2023-07-25T00:06:21.869Z,15.20
2023-07-25T00:08:48.906Z,15.10
2023-07-25T00:11:16.244Z,15.00
2023-07-25T00:13:43.013Z,14.90
2023-07-25T00:16:09.904Z,14.80
2023-07-25T00:18:36.799Z,14.70
2023-07-25T00:21:03.624Z,14.60
2023-07-25T00:23:30.339Z,14.60
2023-07-25T00:25:57.045Z,14.60
2023-07-25T00:28:24.071Z,14.50
2023-07-25T00:30:50.802Z,14.50
2023-07-25T00:33:17.545Z,14.50
2023-07-25T00:35:52.513Z,14.50
2023-07-25T00:38:19.416Z,14.40
2023-07-25T00:40:47.903Z,14.40
2023-07-25T00:43:15.005Z,14.30
2023-07-25T00:45:41.866Z,14.30
2023-07-25T00:48:08.689Z,14.50
2023-07-25T00:50:35.812Z,14.50
2023-07-25T00:53:03.525Z,14.60
2023-07-25T00:55:30.674Z,14.70
2023-07-25T00:57:57.489Z,14.70
2023-07-25T01:00:24.320Z,14.70
2023-07-25T01:02:51.558Z,14.70
2023-07-25T01:05:18.738Z,14.70
2023-07-25T01:07:46.257Z,14.70
2023-07-25T01:10:15.465Z,14.70
2023-07-25T01:12:42.175Z,14.80
2023-07-25T01:15:09.602Z,14.80
2023-07-25T01:17:36.563Z,14.80
2023-07-25T01:20:03.839Z,14.80
2023-07-25T01:22:36.506Z,14.90
2023-07-25T01:25:03.321Z,14.90
2023-07-25T01:27:30.030Z,14.90
2023-07-25T01:29:56.778Z,15.00
2023-07-25T01:32:23.510Z,14.90
2023-07-25T01:34:50.278Z,14.90
2023-07-25T01:37:17.058Z,14.90
2023-07-25T01:39:45.034Z,14.90
2023-07-25T01:42:11.811Z,14.90
2023-07-25T01:44:38.528Z,14.80
2023-07-25T01:47:05.555Z,14.90
2023-07-25T01:49:32.330Z,14.90
2023-07-25T01:51:59.132Z,14.80
2023-07-25T01:54:26.939Z,14.80
2023-07-25T01:56:53.938Z,14.90
2023-07-25T01:59:20.731Z,14.90
2023-07-25T02:01:47.502Z,14.90
2023-07-25T02:04:14.317Z,15.00
2023-07-25T02:06:41.069Z,15.00
2023-07-25T02:09:07.786Z,15.00
2023-07-25T02:11:34.874Z,15.10
2023-07-25T02:14:01.679Z,15.20
2023-07-25T02:16:28.415Z,15.10
2023-07-25T02:18:55.333Z,15.10
2023-07-25T02:21:22.024Z,15.20
2023-07-25T02:23:48.712Z,15.20
2023-07-25T02:26:15.432Z,15.20
2023-07-25T02:28:42.195Z,15.30
2023-07-25T02:31:09.045Z,15.30
2023-07-25T02:33:36.383Z,15.30
2023-07-25T02:36:03.400Z,15.30
2023-07-25T02:38:30.269Z,15.30
2023-07-25T02:40:57.036Z,15.30
2023-07-25T02:43:24.422Z,15.30
2023-07-25T02:45:54.027Z,15.20
2023-07-25T02:48:20.873Z,15.20
2023-07-25T02:50:47.625Z,15.10
2023-07-25T02:53:14.400Z,15.20
2023-07-25T02:55:41.268Z,15.10
2023-07-25T02:58:08.275Z,15.10
2023-07-25T03:00:35.057Z,15.10
2023-07-25T03:03:01.846Z,15.10
2023-07-25T03:05:29.453Z,15.10
2023-07-25T03:07:57.608Z,15.00
2023-07-25T03:10:24.450Z,15.10
2023-07-25T03:12:51.230Z,15.00
2023-07-25T03:15:18.054Z,15.00
2023-07-25T03:17:46.661Z,14.90
2023-07-25T03:20:13.639Z,14.90
2023-07-25T03:22:40.380Z,14.80
2023-07-25T03:25:07.443Z,14.80
2023-07-25T03:27:34.506Z,14.70
2023-07-25T03:30:01.293Z,14.60
2023-07-25T03:32:28.219Z,14.60
2023-07-25T03:34:54.947Z,14.50
2023-07-25T03:37:21.755Z,14.40
2023-07-25T03:39:48.500Z,14.40
2023-07-25T03:42:15.206Z,14.40
2023-07-25T03:44:41.931Z,14.30
2023-07-25T03:47:08.644Z,14.30
2023-07-25T03:49:35.376Z,14.30
2023-07-25T03:52:02.085Z,14.40
2023-07-25T03:54:28.825Z,14.30
2023-07-25T03:56:55.690Z,14.30
2023-07-25T03:59:22.453Z,14.30
2023-07-25T04:01:49.336Z,14.40
2023-07-25T04:04:16.274Z,14.40
2023-07-25T04:06:43.095Z,14.50
2023-07-25T04:09:09.816Z,14.50
2023-07-25T04:11:36.563Z,14.60
2023-07-25T04:14:03.826Z,14.70
2023-07-25T04:16:30.745Z,14.80
2023-07-25T04:18:57.504Z,14.90
2023-07-25T04:21:24.280Z,15.00
2023-07-25T04:23:51.044Z,15.10
2023-07-25T04:26:17.818Z,15.10
2023-07-25T04:28:44.602Z,15.10
2023-07-25T04:31:11.360Z,15.20
2023-07-25T04:33:38.174Z,15.20
2023-07-25T04:36:05.070Z,15.30
2023-07-25T04:38:31.832Z,15.30
2023-07-25T04:40:58.575Z,15.30
2023-07-25T04:43:25.358Z,15.30
2023-07-25T04:45:54.873Z,15.30
2023-07-25T04:48:21.958Z,15.30
2023-07-25T04:50:48.675Z,15.30
2023-07-25T04:53:15.418Z,15.40
2023-07-25T04:55:42.141Z,15.40
2023-07-25T04:58:08.951Z,15.60
2023-07-25T05:00:35.673Z,15.70
2023-07-25T05:03:02.521Z,15.80
2023-07-25T05:05:29.401Z,15.90
2023-07-25T05:07:57.921Z,15.90
2023-07-25T05:10:24.756Z,16.00
2023-07-25T05:12:51.569Z,16.00
2023-07-25T05:15:18.687Z,16.10
2023-07-25T05:17:45.397Z,16.10
2023-07-25T05:20:12.327Z,16.10
2023-07-25T05:22:39.119Z,16.20
2023-07-25T05:25:06.106Z,16.20
2023-07-25T05:27:32.825Z,16.20
2023-07-25T05:29:59.594Z,16.20
2023-07-25T05:32:26.415Z,16.20
2023-07-25T05:34:53.153Z,16.20
2023-07-25T05:37:20.112Z,16.10
2023-07-25T05:39:47.033Z,16.10
2023-07-25T05:42:13.819Z,16.00
2023-07-25T05:44:40.625Z,16.00
2023-07-25T05:47:07.508Z,16.00
2023-07-25T05:49:34.484Z,16.00
2023-07-25T05:52:01.245Z,16.10
2023-07-25T05:54:29.763Z,16.20
2023-07-25T05:56:56.543Z,16.30
2023-07-25T05:59:23.276Z,16.40
2023-07-25T06:01:49.999Z,16.60
2023-07-25T06:04:16.860Z,16.60
2023-07-25T06:06:43.593Z,16.70
2023-07-25T06:09:10.375Z,16.80
2023-07-25T06:11:37.692Z,16.90
2023-07-25T06:14:05.857Z,16.90
2023-07-25T06:16:33.730Z,17.00
2023-07-25T06:19:00.552Z,17.00
2023-07-25T06:21:27.475Z,17.20
2023-07-25T06:23:54.302Z,17.20
2023-07-25T06:26:21.003Z,17.10
2023-07-25T06:28:47.715Z,17.30
2023-07-25T06:31:14.643Z,17.30
2023-07-25T06:33:41.523Z,17.40
2023-07-25T06:36:08.229Z,17.50
2023-07-25T06:38:34.977Z,17.50
2023-07-25T06:41:01.692Z,17.50
2023-07-25T06:43:28.503Z,17.50
2023-07-25T06:45:55.445Z,17.60
2023-07-25T06:48:22.397Z,17.70
2023-07-25T06:50:49.483Z,17.60
2023-07-25T06:53:16.260Z,17.50
2023-07-25T06:55:43.140Z,17.50
2023-07-25T06:58:10.444Z,17.60
2023-07-25T07:00:38.716Z,17.60
2023-07-25T07:03:06.475Z,17.70
2023-07-25T07:05:37.168Z,17.70
2023-07-25T07:08:04.767Z,17.80
2023-07-25T07:10:33.478Z,18.00
2023-07-25T07:13:00.608Z,18.20
2023-07-25T07:15:27.394Z,18.40
2023-07-25T07:17:54.613Z,18.70
2023-07-25T07:20:21.860Z,19.00
2023-07-25T07:22:48.558Z,19.50
2023-07-25T07:25:15.429Z,19.60
2023-07-25T07:27:42.195Z,19.90
2023-07-25T07:30:09.239Z,20.20
2023-07-25T07:32:35.961Z,20.60
2023-07-25T07:35:02.801Z,21.10
2023-07-25T07:37:30.296Z,21.40
2023-07-25T07:39:58.420Z,21.80
2023-07-25T07:42:25.171Z,21.70
2023-07-25T07:44:51.984Z,22.10
2023-07-25T07:47:18.766Z,22.30
2023-07-25T07:49:45.487Z,22.80
2023-07-25T07:52:19.836Z,22.70
2023-07-25T07:54:52.911Z,22.30
2023-07-25T07:57:19.644Z,21.90
2023-07-25T07:59:46.730Z,21.90
2023-07-25T08:02:13.520Z,21.60
2023-07-25T08:04:40.649Z,21.70
2023-07-25T08:07:08.064Z,21.50
2023-07-25T08:09:34.898Z,21.40
2023-07-25T08:12:04.585Z,21.00
2023-07-25T08:14:31.434Z,20.80
2023-07-25T08:16:58.245Z,20.40
2023-07-25T08:19:25.042Z,20.20
2023-07-25T08:21:54.663Z,20.00
2023-07-25T08:24:21.426Z,19.80
2023-07-25T08:26:48.147Z,19.70
2023-07-25T08:29:15.009Z,19.70
2023-07-25T08:31:41.814Z,19.60
2023-07-25T08:34:08.572Z,19.50
2023-07-25T08:36:35.269Z,19.40
2023-07-25T08:39:01.997Z,19.40
2023-07-25T08:41:35.945Z,19.40
2023-07-25T08:44:03.276Z,19.60
2023-07-25T08:46:32.989Z,19.80
2023-07-25T08:49:03.503Z,19.80
2023-07-25T08:51:34.568Z,19.80
2023-07-25T08:54:19.215Z,19.70
2023-07-25T08:56:48.174Z,19.60
2023-07-25T08:59:15.679Z,19.40
2023-07-25T09:01:43.258Z,19.20
2023-07-25T09:04:11.733Z,19.20
2023-07-25T09:06:38.613Z,19.20
2023-07-25T09:09:06.182Z,19.30
2023-07-25T09:11:35.095Z,19.30
2023-07-25T09:14:02.643Z,19.30
2023-07-25T09:16:30.473Z,19.30
2023-07-25T09:18:57.359Z,19.40
2023-07-25T09:21:24.187Z,19.70
2023-07-25T09:24:01.096Z,19.50
2023-07-25T09:26:30.138Z,19.40
2023-07-25T09:29:00.902Z,19.50
2023-07-25T09:31:29.346Z,19.60
2023-07-25T09:33:57.396Z,19.90
2023-07-25T09:36:24.356Z,20.90
2023-07-25T09:38:55.939Z,22.70
2023-07-25T09:41:24.343Z,24.60
2023-07-25T09:43:52.036Z,27.00
2023-07-25T09:46:19.765Z,28.80
2023-07-25T09:48:53.356Z,29.40
2023-07-25T09:51:20.104Z,29.10
2023-07-25T09:53:54.615Z,28.40
2023-07-25T09:56:26.319Z,27.80
2023-07-25T09:59:06.714Z,27.10
2023-07-25T10:01:36.230Z,27.30
2023-07-25T10:04:04.696Z,29.30
2023-07-25T10:06:33.101Z,28.50
2023-07-25T10:09:00.104Z,29.30
2023-07-25T10:11:28.029Z,29.80
2023-07-25T10:13:55.112Z,29.90
2023-07-25T10:16:22.688Z,29.90
2023-07-25T10:18:59.176Z,28.90
2023-07-25T10:21:30.513Z,27.20
2023-07-25T10:24:04.114Z,26.20
2023-07-25T10:26:30.881Z,25.60
2023-07-25T10:29:00.585Z,25.60
2023-07-25T10:31:36.728Z,26.60
2023-07-25T10:34:05.381Z,28.60
2023-07-25T10:36:32.218Z,30.50
2023-07-25T10:39:07.232Z,31.90
2023-07-25T10:41:34.331Z,33.30
2023-07-25T10:44:03.618Z,32.60
2023-07-25T10:46:33.460Z,31.00
2023-07-25T10:49:05.021Z,29.30
2023-07-25T10:51:52.602Z,27.80
2023-07-25T10:54:21.411Z,26.60
2023-07-25T10:57:18.702Z,25.60
2023-07-25T11:00:01.940Z,24.90
2023-07-25T11:02:33.707Z,24.50
2023-07-25T11:05:21.947Z,23.90
2023-07-25T11:07:52.782Z,24.20
2023-07-25T11:10:27.757Z,25.20
2023-07-25T11:12:55.461Z,27.20
2023-07-25T11:15:40.243Z,29.10
2023-07-25T11:18:09.125Z,29.90
2023-07-25T11:20:36.018Z,29.70
2023-07-25T11:23:02.859Z,28.90
2023-07-25T11:25:29.608Z,28.50
2023-07-25T11:27:56.355Z,29.20
2023-07-25T11:30:23.174Z,30.10
2023-07-25T11:32:54.662Z,29.70
2023-07-25T11:35:22.641Z,29.90
2023-07-25T11:37:54.190Z,29.60
2023-07-25T11:40:23.160Z,28.90
2023-07-25T11:42:50.803Z,28.20
2023-07-25T11:45:18.442Z,27.20
2023-07-25T11:47:49.526Z,26.30
2023-07-25T11:50:26.365Z,25.40
2023-07-25T11:52:54.602Z,24.50
2023-07-25T11:55:21.582Z,23.60
2023-07-25T11:57:48.391Z,22.80
2023-07-25T12:00:17.254Z,21.90
2023-07-25T12:02:44.343Z,20.60
2023-07-25T12:05:29.995Z,19.60
2023-07-25T12:08:04.808Z,18.90
2023-07-25T12:10:33.794Z,18.40
2023-07-25T12:13:03.948Z,18.00
2023-07-25T12:15:44.584Z,17.80
2023-07-25T12:18:28.710Z,17.40
2023-07-25T12:21:03.635Z,17.30
2023-07-25T12:23:31.725Z,17.20
2023-07-25T12:26:01.788Z,17.10
2023-07-25T12:28:46.404Z,17.10
2023-07-25T12:31:14.126Z,17.10
2023-07-25T12:33:45.116Z,17.20
2023-07-25T12:36:12.683Z,17.20
2023-07-25T12:38:39.421Z,17.20
2023-07-25T12:41:06.125Z,17.20
2023-07-25T12:43:33.055Z,17.20
2023-07-25T12:45:59.785Z,17.70
2023-07-25T12:48:26.678Z,18.10
2023-07-25T12:50:53.659Z,18.40
2023-07-25T12:53:20.573Z,18.40
2023-07-25T12:55:47.318Z,18.50
2023-07-25T12:58:14.273Z,18.70
2023-07-25T13:00:41.058Z,19.00
2023-07-25T13:03:09.809Z,19.50
2023-07-25T13:05:36.650Z,20.00
2023-07-25T13:08:03.618Z,20.50
2023-07-25T13:10:30.447Z,21.00
2023-07-25T13:12:57.161Z,21.20
2023-07-25T13:15:23.939Z,21.10
2023-07-25T13:17:50.709Z,20.90
2023-07-25T13:20:17.552Z,20.30
2023-07-25T13:22:44.339Z,19.50
2023-07-25T13:25:12.459Z,19.20
2023-07-25T13:27:39.297Z,19.00
2023-07-25T13:30:06.661Z,18.90
2023-07-25T13:32:33.427Z,18.90
2023-07-25T13:35:00.289Z,19.00
2023-07-25T13:37:27.015Z,19.00
2023-07-25T13:39:53.739Z,18.90
2023-07-25T13:42:23.453Z,19.00
2023-07-25T13:44:50.457Z,19.10
2023-07-25T13:47:17.324Z,19.30
2023-07-25T13:49:44.289Z,19.50
2023-07-25T13:52:11.244Z,19.50
2023-07-25T13:54:38.265Z,19.80
2023-07-25T13:57:07.815Z,20.00
2023-07-25T13:59:37.420Z,20.40
2023-07-25T14:02:04.326Z,20.70
2023-07-25T14:04:31.156Z,20.90
2023-07-25T14:06:57.954Z,20.90
2023-07-25T14:09:24.729Z,21.10
2023-07-25T14:11:51.552Z,20.90
2023-07-25T14:14:18.514Z,20.80
2023-07-25T14:16:45.210Z,20.70
2023-07-25T14:19:12.121Z,20.80
2023-07-25T14:21:38.858Z,20.50
2023-07-25T14:24:06.535Z,20.00
2023-07-25T14:26:36.569Z,20.00
2023-07-25T14:29:04.776Z,20.40
2023-07-25T14:31:35.959Z,20.60
2023-07-25T14:34:03.309Z,20.80
2023-07-25T14:36:30.254Z,21.00
2023-07-25T14:38:57.173Z,21.20
2023-07-25T14:41:24.231Z,21.30
2023-07-25T14:43:53.047Z,21.10
2023-07-25T14:46:20.328Z,21.50
2023-07-25T14:48:47.317Z,21.80
2023-07-25T14:51:14.262Z,22.10
2023-07-25T14:53:40.984Z,22.30
2023-07-25T14:56:08.452Z,21.90
2023-07-25T14:58:35.232Z,21.30
2023-07-25T15:01:02.648Z,20.80
2023-07-25T15:03:29.451Z,20.40
2023-07-25T15:05:56.183Z,20.10
2023-07-25T15:08:22.918Z,20.20
2023-07-25T15:10:50.429Z,20.00
2023-07-25T15:13:17.598Z,20.00
2023-07-25T15:15:44.303Z,19.90
2023-07-25T15:18:11.124Z,20.00
2023-07-25T15:20:38.015Z,20.00
2023-07-25T15:23:04.859Z,20.20
2023-07-25T15:25:31.742Z,20.30
2023-07-25T15:27:58.575Z,20.30
2023-07-25T15:30:27.181Z,20.30
2023-07-25T15:32:54.500Z,20.20
2023-07-25T15:35:21.762Z,20.30
2023-07-25T15:37:48.694Z,20.30
2023-07-25T15:40:15.540Z,20.20
2023-07-25T15:42:42.298Z,20.00
2023-07-25T15:45:09.685Z,20.00
2023-07-25T15:47:36.585Z,19.70
2023-07-25T15:50:03.534Z,19.70
2023-07-25T15:52:30.374Z,19.60
2023-07-25T15:54:57.320Z,19.60
2023-07-25T15:57:24.039Z,19.50
2023-07-25T15:59:50.727Z,19.20
2023-07-25T16:02:17.423Z,19.20
2023-07-25T16:04:44.153Z,19.10
2023-07-25T16:07:10.835Z,18.70
2023-07-25T16:09:38.425Z,18.70
2023-07-25T16:12:07.379Z,18.50
2023-07-25T16:14:34.135Z,18.30
2023-07-25T16:17:00.875Z,18.00
2023-07-25T16:19:27.678Z,18.00
2023-07-25T16:21:54.394Z,17.80
2023-07-25T16:24:21.114Z,17.80
2023-07-25T16:26:47.817Z,17.60
2023-07-25T16:29:14.644Z,17.50
2023-07-25T16:31:41.488Z,17.30
2023-07-25T16:34:08.199Z,17.30
2023-07-25T16:36:36.641Z,17.20
2023-07-25T16:39:03.606Z,17.20
2023-07-25T16:41:30.493Z,17.10
2023-07-25T16:43:57.438Z,17.10
2023-07-25T16:46:24.224Z,17.00
2023-07-25T16:48:50.972Z,17.00
2023-07-25T16:51:18.025Z,16.90
2023-07-25T16:53:44.836Z,17.00
2023-07-25T16:56:11.779Z,17.00
2023-07-25T16:58:38.521Z,17.00
2023-07-25T17:01:05.263Z,17.10
2023-07-25T17:03:32.230Z,17.30
2023-07-25T17:06:00.634Z,17.30
2023-07-25T17:08:28.778Z,17.50
2023-07-25T17:10:56.950Z,17.50
2023-07-25T17:13:23.677Z,17.50
2023-07-25T17:15:50.552Z,17.50
2023-07-25T17:18:17.351Z,17.40
2023-07-25T17:20:44.064Z,17.30
2023-07-25T17:23:11.782Z,17.30
2023-07-25T17:25:39.662Z,17.30
2023-07-25T17:28:06.398Z,17.20
2023-07-25T17:30:33.081Z,17.20
2023-07-25T17:33:01.689Z,17.20
2023-07-25T17:35:37.533Z,17.30
2023-07-25T17:38:05.058Z,17.30
2023-07-25T17:40:32.298Z,17.20
2023-07-25T17:42:59.014Z,17.30
2023-07-25T17:45:25.730Z,17.20
2023-07-25T17:47:52.531Z,17.30
2023-07-25T17:50:20.143Z,17.20
2023-07-25T17:52:46.845Z,17.20
2023-07-25T17:55:13.540Z,17.10
2023-07-25T17:57:40.275Z,17.00
2023-07-25T18:00:07.786Z,17.10
2023-07-25T18:02:34.547Z,17.00
2023-07-25T18:05:01.327Z,17.00
2023-07-25T18:07:27.997Z,16.90
2023-07-25T18:09:55.762Z,16.90
2023-07-25T18:12:22.507Z,16.80
2023-07-25T18:14:49.281Z,16.70
2023-07-25T18:17:16.168Z,16.70
2023-07-25T18:19:42.958Z,16.50
2023-07-25T18:22:09.696Z,16.60
2023-07-25T18:24:36.502Z,16.50
2023-07-25T18:27:03.285Z,16.50
2023-07-25T18:29:29.968Z,16.30
2023-07-25T18:31:56.720Z,16.30
2023-07-25T18:34:23.657Z,16.10
2023-07-25T18:36:50.476Z,16.10
2023-07-25T18:39:17.201Z,16.00
2023-07-25T18:41:43.945Z,15.90
2023-07-25T18:44:10.627Z,15.90
2023-07-25T18:46:37.423Z,15.80
2023-07-25T18:49:04.260Z,15.70
2023-07-25T18:51:31.066Z,15.60
2023-07-25T18:53:57.761Z,15.60
2023-07-25T18:56:24.454Z,15.50
2023-07-25T18:58:51.155Z,15.50
2023-07-25T19:01:17.895Z,15.30
2023-07-25T19:03:44.836Z,15.30
2023-07-25T19:06:11.554Z,15.20
2023-07-25T19:08:38.313Z,15.20
2023-07-25T19:11:05.317Z,15.10
2023-07-25T19:13:32.636Z,15.10
2023-07-25T19:15:59.376Z,15.00
2023-07-25T19:18:26.169Z,14.90
2023-07-25T19:20:52.967Z,14.90
2023-07-25T19:23:26.806Z,14.90
2023-07-25T19:26:00.889Z,14.90
2023-07-25T19:28:28.878Z,14.80
2023-07-25T19:30:56.830Z,14.80
2023-07-25T19:33:25.785Z,14.80
2023-07-25T19:35:58.737Z,14.70
2023-07-25T19:38:27.419Z,14.70
2023-07-25T19:40:54.884Z,14.60
2023-07-25T19:43:21.885Z,14.60
2023-07-25T19:45:48.649Z,14.60
2023-07-25T19:48:17.425Z,14.60
2023-07-25T19:50:46.855Z,14.60
2023-07-25T19:53:14.875Z,14.50
2023-07-25T19:55:42.054Z,14.50
2023-07-25T19:58:09.047Z,14.40
2023-07-25T20:00:36.750Z,14.30
2023-07-25T20:03:03.825Z,14.30
2023-07-25T20:05:30.671Z,14.30
2023-07-25T20:07:57.402Z,14.20
2023-07-25T20:10:24.161Z,14.30
2023-07-25T20:12:51.060Z,14.30
2023-07-25T20:15:19.781Z,14.40
2023-07-25T20:17:47.659Z,14.30
2023-07-25T20:20:14.560Z,14.30
2023-07-25T20:22:41.288Z,14.40
2023-07-25T20:25:10.910Z,14.30
2023-07-25T20:27:37.744Z,14.40
2023-07-25T20:30:05.455Z,14.40
2023-07-25T20:32:32.238Z,14.40
2023-07-25T20:34:59.024Z,14.40
2023-07-25T20:37:25.737Z,14.40
2023-07-25T20:39:53.326Z,14.40
2023-07-25T20:42:20.053Z,14.40
2023-07-25T20:44:46.947Z,14.40
2023-07-25T20:47:13.718Z,14.50
2023-07-25T20:49:40.605Z,14.40
2023-07-25T20:52:07.657Z,14.40
2023-07-25T20:54:34.385Z,14.40
2023-07-25T20:57:01.102Z,14.30
2023-07-25T20:59:27.838Z,14.40
2023-07-25T21:01:54.699Z,14.40
2023-07-25T21:04:21.462Z,14.40
2023-07-25T21:06:48.245Z,14.40
2023-07-25T21:09:15.300Z,14.40
2023-07-25T21:11:42.025Z,14.40
2023-07-25T21:14:08.768Z,14.40
2023-07-25T21:16:35.947Z,14.40
2023-07-25T21:19:02.871Z,14.30
2023-07-25T21:21:29.868Z,14.30
2023-07-25T21:23:56.780Z,14.30
2023-07-25T21:26:23.556Z,14.20
2023-07-25T21:28:50.252Z,14.20
2023-07-25T21:31:16.998Z,14.20
2023-07-25T21:33:43.738Z,14.10
2023-07-25T21:36:14.629Z,14.10
2023-07-25T21:38:42.383Z,14.10
2023-07-25T21:41:15.637Z,14.00
2023-07-25T21:43:43.329Z,14.00
2023-07-25T21:46:10.601Z,13.90
2023-07-25T21:48:37.614Z,13.90
2023-07-25T21:51:04.469Z,13.80
2023-07-25T21:53:31.779Z,13.80
2023-07-25T21:55:58.988Z,13.80
2023-07-25T21:58:27.409Z,13.70
2023-07-25T22:00:58.715Z,13.70
2023-07-25T22:03:29.047Z,13.70
2023-07-25T22:05:56.912Z,13.60
2023-07-25T22:08:24.232Z,13.60
2023-07-25T22:10:51.044Z,13.60
2023-07-25T22:13:17.735Z,13.50
2023-07-25T22:15:44.833Z,13.60
2023-07-25T22:18:11.644Z,13.50
2023-07-25T22:20:50.740Z,13.50
2023-07-25T22:23:18.864Z,13.50
2023-07-25T22:25:45.703Z,13.50
2023-07-25T22:28:12.605Z,13.50
2023-07-25T22:30:39.342Z,13.50
2023-07-25T22:33:06.160Z,13.50
2023-07-25T22:35:32.912Z,13.50
2023-07-25T22:38:03.935Z,13.50
2023-07-25T22:40:31.093Z,13.50
2023-07-25T22:42:57.897Z,13.50
2023-07-25T22:45:26.573Z,13.50
2023-07-25T22:47:53.831Z,13.50
2023-07-25T22:50:20.665Z,13.50
2023-07-25T22:52:47.457Z,13.50
2023-07-25T22:55:16.055Z,13.50
2023-07-25T22:57:43.944Z,13.50
2023-07-25T23:00:11.287Z,13.50
2023-07-25T23:02:38.325Z,13.60
2023-07-25T23:05:05.628Z,13.60
2023-07-25T23:07:32.402Z,13.50
2023-07-25T23:09:59.160Z,13.50
2023-07-25T23:12:26.033Z,13.50
2023-07-25T23:14:52.771Z,13.50
2023-07-25T23:17:19.477Z,13.50
2023-07-25T23:19:46.452Z,13.50
2023-07-25T23:22:13.282Z,13.50
2023-07-25T23:24:40.334Z,13.50
2023-07-25T23:27:07.473Z,13.50
2023-07-25T23:29:34.520Z,13.40
2023-07-25T23:32:01.239Z,13.40
2023-07-25T23:34:33.027Z,13.40
2023-07-25T23:36:59.706Z,13.40
2023-07-25T23:39:26.429Z,13.50
2023-07-25T23:41:53.143Z,13.50
2023-07-25T23:44:19.873Z,13.50
2023-07-25T23:46:46.652Z,13.50
2023-07-25T23:49:13.364Z,13.50
2023-07-25T23:51:40.060Z,13.50
2023-07-25T23:54:06.839Z,13.50
2023-07-25T23:56:33.879Z,13.50
2023-07-25T23:59:00.980Z,13.50
